Welcome to Des Moines Iowa Weather. I am an independent private personal weather station on the Northwest Side of Des Moines, Iowa. Just East of Windsor Heights and just West of Glendale . This site is also mobile friendly.

There are no active watches, warnings or advisories


Visit our other weather sites:

Historical Data

Weather Station Setup



Weather Underground History page Text

Daily Summary for May 7, 2017 Units:  English    Metric   Both
« Previous Day
Next Day »
Daily Weekly Monthly Yearly Custom
  High: Low: Average:
Temperature: 79.4 °F 46.1 °F 63.4 °F
Dew Point: 48.0 °F 37.0 °F 42.5 °F
Humidity: 77 % 28 % 49 %
Wind Speed: 3.0 mph 0.0 mph 0.2 mph
Wind Gust: 6.0 mph - -
Wind:- - SE
Pressure: 30.00 in 29.87 in -
Precipitation: 0.00 in    
Historical Graphs
 
 
Tabular Data for May 7, 2017
Time Temperature Dew Point Pressure Wind Wind Speed Wind Gust Humidity Rainfall Rate (Hourly)
00:08 53.6 °F 38.0 °F 29.92 in Calm     57 % 0.00 in
00:23 53.1 °F 39.0 °F 29.92 in Calm     59 % 0.00 in
00:38 52.7 °F 39.0 °F 29.92 in Calm     59 % 0.00 in
00:53 52.4 °F 38.0 °F 29.93 in Calm     59 % 0.00 in
01:08 52.0 °F 38.0 °F 29.93 in Calm     59 % 0.00 in
01:23 51.6 °F 37.0 °F 29.93 in Calm     59 % 0.00 in
01:38 51.2 °F 38.0 °F 29.94 in Calm     61 % 0.00 in
01:53 50.8 °F 38.0 °F 29.94 in Calm     63 % 0.00 in
02:08 50.4 °F 39.0 °F 29.94 in Calm     64 % 0.00 in
02:23 50.0 °F 39.0 °F 29.94 in Calm     66 % 0.00 in
02:38 49.6 °F 39.0 °F 29.94 in Calm     66 % 0.00 in
02:54 49.2 °F 38.0 °F 29.94 in Calm     66 % 0.00 in
03:09 48.9 °F 38.0 °F 29.94 in Calm     66 % 0.00 in
03:24 48.6 °F 38.0 °F 29.94 in Calm     68 % 0.00 in
03:39 48.2 °F 38.0 °F 29.95 in Calm     69 % 0.00 in
03:54 48.0 °F 38.0 °F 29.94 in Calm     69 % 0.00 in
04:09 47.9 °F 39.0 °F 29.94 in Calm     70 % 0.00 in
04:24 47.6 °F 38.0 °F 29.95 in Calm     70 % 0.00 in
04:39 47.5 °F 38.0 °F 29.95 in Calm     69 % 0.00 in
04:54 47.3 °F 38.0 °F 29.95 in Calm     70 % 0.00 in
05:09 47.2 °F 38.0 °F 29.95 in Calm     71 % 0.00 in
05:24 47.0 °F 38.0 °F 29.95 in Calm     71 % 0.00 in
05:39 46.8 °F 38.0 °F 29.95 in Calm     72 % 0.00 in
05:54 46.6 °F 38.0 °F 29.96 in Calm     72 % 0.00 in
06:09 46.4 °F 38.0 °F 29.97 in Calm     72 % 0.00 in
06:24 46.2 °F 38.0 °F 29.97 in Calm     73 % 0.00 in
06:39 46.1 °F 38.0 °F 29.98 in Calm     74 % 0.00 in
06:54 46.2 °F 39.0 °F 29.98 in Calm     76 % 0.00 in
07:09 46.8 °F 40.0 °F 29.98 in Calm     77 % 0.00 in
07:24 47.6 °F 41.0 °F 29.99 in Calm     77 % 0.00 in
07:39 48.7 °F 41.0 °F 30.00 in Calm     76 % 0.00 in
07:54 50.9 °F 41.0 °F 30.00 in Calm   1.0 mph 68 % 0.00 in
08:09 53.4 °F 40.0 °F 30.00 in Calm   3.0 mph 60 % 0.00 in
08:24 55.2 °F 40.0 °F 30.00 in ENE 3.0 mph 4.0 mph 56 % 0.00 in
08:39 56.6 °F 40.0 °F 30.00 in ENE 1.0 mph 3.0 mph 54 % 0.00 in
08:54 57.5 °F 41.0 °F 30.00 in Calm   2.0 mph 55 % 0.00 in
09:09 58.3 °F 41.0 °F 30.00 in Calm   2.0 mph 54 % 0.00 in
09:25 59.4 °F 42.0 °F 30.00 in Calm   2.0 mph 52 % 0.00 in
09:40 60.6 °F 42.0 °F 29.99 in Calm   3.0 mph 50 % 0.00 in
09:55 61.8 °F 42.0 °F 29.99 in Calm   3.0 mph 48 % 0.00 in
10:10 62.9 °F 41.0 °F 30.00 in Calm   3.0 mph 45 % 0.00 in
10:25 63.9 °F 43.0 °F 30.00 in SE 1.0 mph 3.0 mph 47 % 0.00 in
10:40 64.7 °F 43.0 °F 30.00 in SE 1.0 mph 6.0 mph 45 % 0.00 in
10:55 66.3 °F 42.0 °F 30.00 in South 2.0 mph 5.0 mph 42 % 0.00 in
11:10 68.0 °F 43.0 °F 29.99 in Calm   5.0 mph 40 % 0.00 in
11:25 69.6 °F 43.0 °F 29.98 in Calm   5.0 mph 39 % 0.00 in
11:40 69.8 °F 42.0 °F 29.98 in South 1.0 mph 6.0 mph 37 % 0.00 in
11:55 71.2 °F 43.0 °F 29.97 in Calm   3.0 mph 37 % 0.00 in
12:10 72.3 °F 45.0 °F 29.96 in SW 1.0 mph 4.0 mph 38 % 0.00 in
12:25 73.4 °F 43.0 °F 29.96 in Calm   3.0 mph 34 % 0.00 in
12:40 73.7 °F 46.0 °F 29.96 in SSE 2.0 mph 5.0 mph 38 % 0.00 in
12:55 74.0 °F 43.0 °F 29.96 in Calm   3.0 mph 33 % 0.00 in
13:10 74.4 °F 43.0 °F 29.95 in Calm   3.0 mph 32 % 0.00 in
13:25 74.9 °F 44.0 °F 29.95 in Calm   3.0 mph 33 % 0.00 in
13:40 75.1 °F 43.0 °F 29.95 in NNE 2.0 mph 3.0 mph 32 % 0.00 in
13:55 75.7 °F 46.0 °F 29.94 in Calm   4.0 mph 35 % 0.00 in
14:10 76.1 °F 43.0 °F 29.94 in Calm   3.0 mph 31 % 0.00 in
14:25 75.8 °F 43.0 °F 29.93 in Calm   4.0 mph 31 % 0.00 in
14:41 77.2 °F 43.0 °F 29.93 in Calm   5.0 mph 29 % 0.00 in
14:56 77.2 °F 43.0 °F 29.93 in SSE 1.0 mph 5.0 mph 30 % 0.00 in
15:11 76.9 °F 45.0 °F 29.92 in Calm   3.0 mph 32 % 0.00 in
15:26 77.3 °F 43.0 °F 29.91 in Calm   4.0 mph 29 % 0.00 in
15:41 77.8 °F 45.0 °F 29.91 in Calm   6.0 mph 31 % 0.00 in
15:56 78.1 °F 43.0 °F 29.90 in SSW 2.0 mph 5.0 mph 29 % 0.00 in
16:11 78.6 °F 45.0 °F 29.90 in Calm   5.0 mph 31 % 0.00 in
16:26 78.2 °F 42.0 °F 29.89 in NE 2.0 mph 4.0 mph 28 % 0.00 in
16:41 79.4 °F 44.0 °F 29.88 in Calm   2.0 mph 29 % 0.00 in
16:57 78.4 °F 45.0 °F 29.88 in Calm   3.0 mph 31 % 0.00 in
17:11 78.5 °F 46.0 °F 29.88 in Calm   1.0 mph 32 % 0.00 in
17:26 78.6 °F 44.0 °F 29.88 in Calm   4.0 mph 29 % 0.00 in
17:41 78.2 °F 46.0 °F 29.87 in Calm   3.0 mph 32 % 0.00 in
17:56 77.8 °F 45.0 °F 29.87 in Calm   6.0 mph 31 % 0.00 in
18:11 76.9 °F 46.0 °F 29.87 in Calm   2.0 mph 34 % 0.00 in
18:26 76.5 °F 45.0 °F 29.87 in Calm   4.0 mph 33 % 0.00 in
18:41 75.9 °F 46.0 °F 29.87 in Calm   2.0 mph 34 % 0.00 in
18:56 75.3 °F 46.0 °F 29.87 in Calm   2.0 mph 36 % 0.00 in
19:11 75.1 °F 46.0 °F 29.87 in Calm   1.0 mph 36 % 0.00 in
19:26 74.7 °F 47.0 °F 29.87 in Calm   1.0 mph 37 % 0.00 in
19:41 74.0 °F 46.0 °F 29.87 in Calm   1.0 mph 37 % 0.00 in
19:56 73.4 °F 47.0 °F 29.87 in Calm   1.0 mph 39 % 0.00 in
20:11 72.8 °F 47.0 °F 29.87 in Calm     40 % 0.00 in
20:26 71.8 °F 47.0 °F 29.87 in Calm     42 % 0.00 in
20:41 70.6 °F 47.0 °F 29.88 in Calm     43 % 0.00 in
20:56 69.5 °F 47.0 °F 29.88 in Calm     45 % 0.00 in
21:11 68.4 °F 47.0 °F 29.88 in Calm   2.0 mph 46 % 0.00 in
21:26 67.8 °F 47.0 °F 29.89 in Calm     47 % 0.00 in
21:41 67.4 °F 47.0 °F 29.89 in Calm   4.0 mph 48 % 0.00 in
21:56 67.1 °F 47.0 °F 29.89 in Calm   1.0 mph 49 % 0.00 in
22:11 66.9 °F 47.0 °F 29.90 in Calm   1.0 mph 49 % 0.00 in
22:41 66.2 °F 47.0 °F 29.91 in Calm   6.0 mph 51 % 0.00 in
22:56 66.0 °F 47.0 °F 29.91 in East 1.0 mph 2.0 mph 50 % 0.00 in
23:11 65.6 °F 46.0 °F 29.91 in Calm   1.0 mph 50 % 0.00 in
23:26 65.1 °F 47.0 °F 29.91 in Calm     52 % 0.00 in
23:41 64.4 °F 47.0 °F 29.91 in Calm   3.0 mph 54 % 0.00 in
23:56 63.9 °F 48.0 °F 29.91 in Calm   3.0 mph 56 % 0.00 in
Des Moines Weather and Climate
Compliments of Weather Underground - 3 mb

Script developed by  Jim McMurry - jmcmurry@mwt.net Adapted for the template by  Wim van der Kuil - Leuven-Template.eu

You find our weather info also at:

Weather Underground

Equipment we use:

Weather-station
Davis VP2 Plus

Weather-program
Davis Weatherlink.Com

Weather-server
iMac (Retina 4K, 21.5-inch, Late 2015)

Provider
Hostmonster.com

Davis VP2 Plus

Davis Weatherlink.Com

iMac (Retina 4K, 21.5-inch, Late 2015)

Hostmonster.com